Time;durP1;ratioP1;P1;durP2;ratioP2;P2;SDS_P1;SDS_P2;PMS_P1;PMS_P2;Temp;Humidity;BMP_temperature;BMP_pressure;BME280_temperature;BME280_humidity;BME280_pressure;Samples;Min_cycle;Max_cycle;Signal;HPM_P1;HPM_P2
2023/08/26 00:00:56;;;;;;;8.73;8.13;;;;;;;19.54;nan;96562.38;5016015;28;20220;-63
2023/08/26 00:03:24;;;;;;;9.23;8.43;;;;;;;19.58;nan;96568.03;5017942;28;20587;-63
2023/08/26 00:05:53;;;;;;;8.87;8.17;;;;;;;19.59;nan;96565.09;5015339;28;20748;-62
2023/08/26 00:08:21;;;;;;;9.60;8.90;;;;;;;19.66;nan;96572.91;5020689;28;20224;-63
2023/08/26 00:10:49;;;;;;;10.80;9.90;;;;;;;19.65;nan;96549.78;5013861;28;20355;-62
2023/08/26 00:13:16;;;;;;;10.13;9.23;;;;;;;19.57;nan;96534.97;5015495;28;20216;-62
2023/08/26 00:15:44;;;;;;;10.93;9.90;;;;;;;19.49;nan;96522.84;4964498;28;20212;-63
2023/08/26 00:18:13;;;;;;;9.77;8.97;;;;;;;19.48;nan;96506.97;5017324;28;20236;-63
2023/08/26 00:20:41;;;;;;;8.77;8.07;;;;;;;19.45;nan;96507.47;5017041;28;20290;-63
2023/08/26 00:23:09;;;;;;;9.47;8.57;;;;;;;19.50;nan;96507.50;5015682;28;20617;-63
2023/08/26 00:25:37;;;;;;;8.47;7.87;;;;;;;19.53;nan;96510.50;5015567;28;20671;-63
2023/08/26 00:28:05;;;;;;;8.83;8.03;;;;;;;19.47;nan;96502.66;5017039;28;20231;-64
2023/08/26 00:30:33;;;;;;;8.03;7.47;;;;;;;19.45;nan;96480.63;4911852;28;20220;-63
2023/08/26 00:33:01;;;;;;;9.60;8.70;;;;;;;19.48;nan;96466.66;5016898;28;20212;-63
2023/08/26 00:35:30;;;;;;;8.40;7.77;;;;;;;19.43;nan;96456.72;5020956;28;20210;-64
2023/08/26 00:37:57;;;;;;;8.23;7.63;;;;;;;19.41;nan;96449.97;5017171;28;20223;-64
2023/08/26 00:40:25;;;;;;;8.83;8.07;;;;;;;19.35;nan;96444.56;5017486;28;20228;-64
2023/08/26 00:42:54;;;;;;;9.30;8.60;;;;;;;19.47;nan;96447.06;5018624;28;20228;-64
2023/08/26 00:45:22;;;;;;;8.10;7.40;;;;;;;19.50;nan;96435.78;4963038;28;20230;-62
2023/08/26 00:47:50;;;;;;;8.10;7.50;;;;;;;19.51;nan;96440.09;5017968;28;20287;-62
2023/08/26 00:50:18;;;;;;;9.03;8.33;;;;;;;19.51;nan;96431.25;5017742;28;20227;-64
2023/08/26 00:52:47;;;;;;;8.03;7.43;;;;;;;19.56;nan;96428.59;5019042;28;20211;-63
2023/08/26 00:55:15;;;;;;;8.43;7.60;;;;;;;19.54;nan;96422.66;5014059;28;20204;-63
2023/08/26 00:57:43;;;;;;;8.33;7.63;;;;;;;19.53;nan;96421.84;5019960;28;20643;-62
2023/08/26 01:00:11;;;;;;;8.27;7.63;;;;;;;19.58;nan;96418.38;5014355;28;20632;-62
2023/08/26 01:02:39;;;;;;;7.80;7.30;;;;;;;19.63;nan;96421.09;5018256;28;20283;-63
2023/08/26 01:05:08;;;;;;;8.67;7.83;;;;;;;19.66;nan;96412.50;4875282;28;20751;-63
2023/08/26 01:07:36;;;;;;;8.53;7.80;;;;;;;19.68;nan;96414.91;4977273;28;20373;-63
2023/08/26 01:10:07;;;;;;;7.23;6.63;;;;;;;19.62;nan;96424.84;5018039;28;20204;-64
2023/08/26 01:12:57;;;;;;;7.53;6.83;;;;;;;19.59;nan;96425.38;5016864;28;20200;-62
2023/08/26 01:15:25;;;;;;;7.07;6.37;;;;;;;19.62;nan;96424.03;4997287;28;20209;-62
2023/08/26 01:17:54;;;;;;;7.43;6.93;;;;;;;19.63;nan;96420.28;4998760;28;20240;-63
2023/08/26 01:20:24;;;;;;;7.00;6.40;;;;;;;19.60;nan;96427.00;5015287;28;20695;-63
2023/08/26 01:22:54;;;;;;;7.60;7.07;;;;;;;19.53;nan;96418.38;5017594;28;20212;-61
2023/08/26 01:25:23;;;;;;;7.30;6.80;;;;;;;19.56;nan;96420.53;5013323;28;20433;-64
2023/08/26 01:27:52;;;;;;;7.43;6.63;;;;;;;19.55;nan;96416.22;5019262;28;20236;-62
2023/08/26 01:30:22;;;;;;;7.83;7.13;;;;;;;19.54;nan;96425.34;5016897;28;20692;-62
2023/08/26 01:32:53;;;;;;;7.10;6.60;;;;;;;19.49;nan;96417.25;5012526;28;20565;-63
2023/08/26 01:35:24;;;;;;;7.97;7.27;;;;;;;19.39;nan;96426.06;4964618;28;20208;-62
2023/08/26 01:37:58;;;;;;;8.00;7.40;;;;;;;19.44;nan;96436.03;4861325;28;25841;-62
2023/08/26 01:40:28;;;;;;;7.70;7.20;;;;;;;19.42;nan;96433.59;5015936;28;20212;-63
2023/08/26 01:42:56;;;;;;;7.80;7.10;;;;;;;19.31;nan;96442.66;4959991;28;20598;-62
2023/08/26 01:45:24;;;;;;;8.10;7.30;;;;;;;19.36;nan;96445.41;5013875;28;20312;-63
2023/08/26 01:47:52;;;;;;;9.00;8.30;;;;;;;19.37;nan;96452.38;5013092;28;20231;-64
2023/08/26 01:50:20;;;;;;;8.20;7.60;;;;;;;19.30;nan;96444.53;5013478;28;20208;-63
2023/08/26 01:52:47;;;;;;;8.10;7.30;;;;;;;19.34;nan;96452.91;4963866;28;20839;-62
2023/08/26 01:55:15;;;;;;;8.53;7.87;;;;;;;19.38;nan;96465.53;5013787;28;20215;-62
2023/08/26 01:57:45;;;;;;;7.43;6.93;;;;;;;19.35;nan;96467.94;5009933;28;20239;-63
2023/08/26 02:00:15;;;;;;;8.23;7.57;;;;;;;19.33;nan;96460.13;5014570;28;20203;-61
2023/08/26 02:02:43;;;;;;;9.23;8.53;;;;;;;19.33;nan;96462.81;5006035;28;20239;-62
2023/08/26 02:05:11;;;;;;;8.77;8.07;;;;;;;19.31;nan;96456.91;5018615;28;20242;-63
2023/08/26 02:07:39;;;;;;;9.40;8.70;;;;;;;19.31;nan;96453.38;4912903;28;20777;-62
2023/08/26 02:10:08;;;;;;;8.83;8.23;;;;;;;19.18;nan;96442.03;5009820;28;20273;-60
2023/08/26 02:12:36;;;;;;;9.70;8.87;;;;;;;19.26;nan;96464.91;5010425;28;20228;-64
2023/08/26 02:15:06;;;;;;;8.40;7.77;;;;;;;19.19;nan;96470.50;5017626;28;20200;-62
2023/08/26 02:17:34;;;;;;;9.80;9.17;;;;;;;19.19;nan;96477.75;5012246;28;20224;-63
2023/08/26 02:20:02;;;;;;;10.43;9.43;;;;;;;19.13;nan;96473.41;4955558;28;20219;-63
2023/08/26 02:22:30;;;;;;;10.40;9.60;;;;;;;19.04;nan;96479.25;5012839;28;20223;-64
2023/08/26 02:24:57;;;;;;;9.47;8.60;;;;;;;19.02;nan;96486.75;4966136;28;20219;-63
2023/08/26 02:27:25;;;;;;;10.13;9.27;;;;;;;19.01;nan;96489.69;5014507;28;20958;-63
2023/08/26 02:29:53;;;;;;;10.33;9.60;;;;;;;19.02;nan;96499.38;5008550;28;20204;-63
2023/08/26 02:32:22;;;;;;;9.87;9.13;;;;;;;19.07;nan;96507.47;5015739;28;20203;-63
2023/08/26 02:34:49;;;;;;;10.77;9.90;;;;;;;19.09;nan;96499.97;5011298;28;20215;-64
2023/08/26 02:37:17;;;;;;;10.10;9.20;;;;;;;19.08;nan;96511.75;5016331;28;20242;-64
2023/08/26 02:39:45;;;;;;;9.93;9.03;;;;;;;19.05;nan;96509.59;4895715;28;20827;-64
2023/08/26 02:42:13;;;;;;;11.07;10.20;;;;;;;19.00;nan;96514.91;5015678;28;20242;-64
2023/08/26 02:44:41;;;;;;;10.83;9.93;;;;;;;18.91;nan;96512.66;5012131;28;20211;-63
2023/08/26 02:47:08;;;;;;;10.63;9.73;;;;;;;18.89;nan;96514.78;5019234;28;20220;-62
2023/08/26 02:49:37;;;;;;;10.47;9.70;;;;;;;18.83;nan;96520.38;5010789;28;20215;-64
2023/08/26 02:52:05;;;;;;;9.30;8.70;;;;;;;18.82;nan;96522.22;5015259;28;20697;-63
2023/08/26 02:54:33;;;;;;;9.17;8.43;;;;;;;18.86;nan;96517.16;5011067;28;20204;-62
2023/08/26 02:57:00;;;;;;;9.97;8.97;;;;;;;18.86;nan;96528.69;5016428;28;20224;-63
2023/08/26 02:59:29;;;;;;;9.17;8.43;;;;;;;18.87;nan;96529.53;4962890;28;20231;-63
2023/08/26 03:02:02;;;;;;;9.67;8.67;;;;;;;18.87;nan;96537.59;5016138;28;20228;-63
2023/08/26 03:04:30;;;;;;;9.07;8.27;;;;;;;18.79;nan;96528.94;5009035;28;20202;-63
2023/08/26 03:06:59;;;;;;;10.13;9.33;;;;;;;18.99;nan;96540.16;5018437;28;20227;-64
2023/08/26 03:09:28;;;;;;;10.70;9.10;;;;;;;19.01;nan;96543.38;4894479;28;20531;-63
2023/08/26 03:11:56;;;;;;;10.00;9.20;;;;;;;19.01;nan;96541.50;5016002;28;20206;-64
2023/08/26 03:14:24;;;;;;;10.20;9.30;;;;;;;18.97;nan;96550.28;5010011;28;20207;-65
2023/08/26 03:16:52;;;;;;;9.80;9.10;;;;;;;18.94;nan;96546.22;5018522;28;20227;-64
2023/08/26 03:19:21;;;;;;;9.87;9.07;;;;;;;18.94;nan;96549.75;5012861;28;20212;-66
2023/08/26 03:21:49;;;;;;;9.73;9.00;;;;;;;18.93;nan;96550.78;5017216;28;20236;-63
2023/08/26 03:24:18;;;;;;;10.27;9.37;;;;;;;18.93;nan;96549.97;5013687;28;20472;-65
2023/08/26 03:26:46;;;;;;;10.00;9.10;;;;;;;18.93;nan;96547.28;5018716;28;20226;-63
2023/08/26 03:29:14;;;;;;;9.63;8.83;;;;;;;18.90;nan;96555.84;4979037;28;20580;-62
2023/08/26 03:31:43;;;;;;;10.87;9.87;;;;;;;18.90;nan;96556.66;5005100;28;20205;-64
2023/08/26 03:34:11;;;;;;;9.60;8.80;;;;;;;18.91;nan;96560.16;5014431;28;20270;-62
2023/08/26 03:36:39;;;;;;;10.37;9.43;;;;;;;18.90;nan;96563.91;5011847;28;20220;-62
2023/08/26 03:39:07;;;;;;;10.43;9.43;;;;;;;18.93;nan;96563.41;5014556;28;20914;-65
2023/08/26 03:41:36;;;;;;;11.50;10.47;;;;;;;18.97;nan;96575.25;5014264;28;20205;-64
2023/08/26 03:44:04;;;;;;;9.70;9.00;;;;;;;18.93;nan;96566.09;4956977;28;21622;-65
2023/08/26 03:46:32;;;;;;;10.27;9.47;;;;;;;19.00;nan;96579.34;4953864;28;20232;-63
2023/08/26 03:49:00;;;;;;;11.00;9.87;;;;;;;18.99;nan;96586.56;5016025;28;20204;-65
2023/08/26 03:51:28;;;;;;;10.57;9.77;;;;;;;18.98;nan;96589.53;4896987;28;20770;-64
2023/08/26 03:53:55;;;;;;;11.27;10.13;;;;;;;18.98;nan;96593.00;4956757;28;20224;-63
2023/08/26 03:56:23;;;;;;;10.77;9.97;;;;;;;18.99;nan;96596.50;5013121;28;20208;-64
2023/08/26 03:58:56;;;;;;;11.10;10.30;;;;;;;18.97;nan;96591.34;5014158;28;20216;-64
2023/08/26 04:01:24;;;;;;;10.50;9.70;;;;;;;18.98;nan;96598.38;5011246;28;20200;-65
2023/08/26 04:03:52;;;;;;;10.77;9.90;;;;;;;18.97;nan;96606.66;4970151;28;20723;-64
2023/08/26 04:06:20;;;;;;;11.50;10.43;;;;;;;18.97;nan;96617.41;5012622;28;20216;-63
2023/08/26 04:08:48;;;;;;;11.80;10.63;;;;;;;18.99;nan;96615.31;5011355;28;20216;-63
2023/08/26 04:11:17;;;;;;;11.27;10.33;;;;;;;19.01;nan;96618.56;5016934;28;20803;-63
2023/08/26 04:13:45;;;;;;;12.87;11.67;;;;;;;18.90;nan;96601.47;5010514;28;20205;-64
2023/08/26 04:16:15;;;;;;;11.87;10.87;;;;;;;19.00;nan;96616.94;5014787;28;20734;-62
2023/08/26 04:18:44;;;;;;;11.87;10.70;;;;;;;19.00;nan;96624.97;5015439;28;20220;-63
2023/08/26 04:21:11;;;;;;;11.93;11.00;;;;;;;19.02;nan;96620.97;5018565;28;20228;-64
2023/08/26 04:23:39;;;;;;;11.60;10.57;;;;;;;19.01;nan;96623.91;4909014;28;20232;-63
2023/08/26 04:26:07;;;;;;;12.60;11.60;;;;;;;19.02;nan;96639.75;5016756;28;20234;-63
2023/08/26 04:28:35;;;;;;;12.37;11.07;;;;;;;18.95;nan;96636.44;5013968;28;20214;-62
2023/08/26 04:31:03;;;;;;;12.00;11.20;;;;;;;18.97;nan;96638.88;5019338;28;20232;-62
2023/08/26 04:33:32;;;;;;;11.77;10.57;;;;;;;18.92;nan;96653.84;5015067;28;20196;-64
2023/08/26 04:36:00;;;;;;;11.67;10.40;;;;;;;18.90;nan;96655.97;5020586;28;20215;-64
2023/08/26 04:38:27;;;;;;;11.37;10.40;;;;;;;18.90;nan;96647.13;4971226;28;20224;-63
2023/08/26 04:40:56;;;;;;;12.80;11.60;;;;;;;18.89;nan;96648.19;5019537;28;20205;-63
2023/08/26 04:43:24;;;;;;;12.07;10.83;;;;;;;18.79;nan;96632.75;5010753;28;20307;-62
2023/08/26 04:45:53;;;;;;;12.67;11.57;;;;;;;18.90;nan;96663.22;5018839;28;20619;-63
2023/08/26 04:48:21;;;;;;;12.60;11.40;;;;;;;18.95;nan;96660.59;5013300;28;20228;-63
2023/08/26 04:50:50;;;;;;;12.87;11.57;;;;;;;18.95;nan;96669.47;5020548;28;20249;-62
2023/08/26 04:53:18;;;;;;;12.43;11.33;;;;;;;18.99;nan;96664.41;4889821;28;20216;-61
2023/08/26 04:55:49;;;;;;;13.13;12.13;;;;;;;18.98;nan;96662.00;5015842;28;20219;-63
2023/08/26 04:58:17;;;;;;;13.53;12.33;;;;;;;18.91;nan;96660.25;5015415;28;20240;-63
2023/08/26 05:00:45;;;;;;;13.17;11.97;;;;;;;18.91;nan;96665.63;5015638;28;20212;-63
2023/08/26 05:03:13;;;;;;;13.73;12.23;;;;;;;18.96;nan;96664.91;5011562;28;20236;-63
2023/08/26 05:05:41;;;;;;;14.40;13.20;;;;;;;19.02;nan;96676.53;5014555;28;20220;-62
2023/08/26 05:08:11;;;;;;;13.50;12.20;;;;;;;19.03;nan;96680.84;5014115;28;20238;-63
2023/08/26 05:10:39;;;;;;;14.80;13.37;;;;;;;19.03;nan;96687.00;5019792;28;20204;-63
2023/08/26 05:13:07;;;;;;;13.17;12.17;;;;;;;19.00;nan;96686.72;4974293;28;20216;-63
2023/08/26 05:15:35;;;;;;;14.03;12.80;;;;;;;19.03;nan;96691.59;5015385;28;20203;-63
2023/08/26 05:18:03;;;;;;;14.00;12.90;;;;;;;19.03;nan;96686.22;5014809;28;20235;-61
2023/08/26 05:20:31;;;;;;;13.87;12.77;;;;;;;19.01;nan;96694.50;5016098;28;20192;-61
2023/08/26 05:22:58;;;;;;;15.00;13.80;;;;;;;19.11;nan;96701.88;5013154;28;20236;-60
2023/08/26 05:25:28;;;;;;;14.97;13.77;;;;;;;19.12;nan;96689.25;5017119;28;20230;-62
2023/08/26 05:27:55;;;;;;;14.77;13.47;;;;;;;19.15;nan;96694.16;4887437;28;20397;-63
2023/08/26 05:30:23;;;;;;;14.43;13.23;;;;;;;19.20;nan;96691.50;5017222;28;20238;-62
2023/08/26 05:32:51;;;;;;;12.63;11.60;;;;;;;19.15;nan;96664.59;5011982;28;20311;-63
2023/08/26 05:35:19;;;;;;;13.57;12.37;;;;;;;19.24;nan;96677.31;5018341;28;20192;-60
2023/08/26 05:37:46;;;;;;;12.93;11.70;;;;;;;19.34;nan;96678.50;5013399;28;20220;-61
2023/08/26 05:40:16;;;;;;;11.87;10.93;;;;;;;19.35;nan;96672.88;5014540;28;20223;-62
2023/08/26 05:42:45;;;;;;;11.70;10.80;;;;;;;19.28;nan;96664.19;5012736;28;20204;-64
2023/08/26 05:45:13;;;;;;;11.77;10.93;;;;;;;19.31;nan;96650.25;5016305;28;20218;-63
2023/08/26 05:47:40;;;;;;;12.80;11.63;;;;;;;19.44;nan;96651.75;4970796;28;22075;-64
2023/08/26 05:50:09;;;;;;;11.60;10.60;;;;;;;19.51;nan;96649.66;5016420;28;20720;-62
2023/08/26 05:52:36;;;;;;;11.63;10.67;;;;;;;19.53;nan;96657.47;5014493;28;20204;-62
2023/08/26 05:55:05;;;;;;;11.00;10.13;;;;;;;19.61;nan;96654.31;5017533;28;20524;-61
2023/08/26 05:57:32;;;;;;;10.37;9.57;;;;;;;19.62;nan;96661.31;4886062;28;21814;-61
2023/08/26 06:00:02;;;;;;;12.07;11.07;;;;;;;19.81;nan;96650.16;4895781;28;20365;-64
2023/08/26 06:02:30;;;;;;;12.77;11.53;;;;;;;19.86;nan;96655.56;5019448;28;20212;-64
2023/08/26 06:04:59;;;;;;;11.93;11.13;;;;;;;20.00;nan;96647.13;4955411;28;20227;-64
2023/08/26 06:07:27;;;;;;;10.40;9.60;;;;;;;20.13;nan;96649.34;5015217;28;20482;-64
2023/08/26 06:09:54;;;;;;;9.37;8.60;;;;;;;20.25;nan;96649.97;5013069;28;20205;-64
2023/08/26 06:12:22;;;;;;;8.97;8.37;;;;;;;20.33;nan;96650.56;4946357;28;20218;-64
2023/08/26 06:14:50;;;;;;;9.70;8.90;;;;;;;20.49;nan;96648.78;5016975;28;20239;-64
2023/08/26 06:17:19;;;;;;;9.20;8.37;;;;;;;20.47;nan;96638.25;4953902;28;20845;-62
2023/08/26 06:19:47;;;;;;;8.77;8.10;;;;;;;20.44;nan;96640.66;5016059;28;20311;-63
2023/08/26 06:22:15;;;;;;;8.67;7.97;;;;;;;20.48;nan;96628.31;5014642;28;20213;-61
2023/08/26 06:24:43;;;;;;;9.17;8.30;;;;;;;20.51;nan;96633.97;5016721;28;20235;-62
2023/08/26 06:27:10;;;;;;;10.23;9.23;;;;;;;20.47;nan;96632.09;5015319;28;20235;-61
2023/08/26 06:29:43;;;;;;;9.27;8.57;;;;;;;20.40;nan;96632.31;5017095;28;20203;-61
2023/08/26 06:32:11;;;;;;;8.60;8.00;;;;;;;20.56;nan;96643.13;4884487;28;20471;-64
2023/08/26 06:34:40;;;;;;;8.80;8.03;;;;;;;20.60;nan;96641.53;5015324;28;20576;-62
2023/08/26 06:37:08;;;;;;;8.53;7.93;;;;;;;20.57;nan;96644.75;5013285;28;20226;-62
2023/08/26 06:39:35;;;;;;;9.17;8.43;;;;;;;20.62;nan;96655.53;5014475;28;20208;-64
2023/08/26 06:42:03;;;;;;;9.27;8.47;;;;;;;20.47;nan;96659.78;5013092;28;20208;-62
2023/08/26 06:44:31;;;;;;;8.63;7.90;;;;;;;20.48;nan;96661.41;5015199;28;20228;-62
2023/08/26 06:46:59;;;;;;;9.33;8.57;;;;;;;20.64;nan;96654.22;4958097;28;20228;-63
2023/08/26 06:49:27;;;;;;;9.67;8.87;;;;;;;20.74;nan;96652.63;5016932;28;20196;-62
2023/08/26 06:51:56;;;;;;;8.77;8.10;;;;;;;;;;5010786;28;21958;-63
2023/08/26 06:54:24;;;;;;;8.70;7.87;;;;;;;20.90;nan;96657.06;5012596;28;20235;-62
2023/08/26 06:56:51;;;;;;;8.73;8.03;;;;;;;20.95;nan;96664.31;5014072;28;20583;-63
2023/08/26 06:59:19;;;;;;;9.37;8.77;;;;;;;20.95;nan;96654.38;5015027;28;20200;-64
2023/08/26 07:01:47;;;;;;;9.40;8.70;;;;;;;20.91;nan;96649.78;5009881;28;20270;-63
2023/08/26 07:04:14;;;;;;;9.70;8.80;;;;;;;21.00;nan;96656.25;5014242;28;20760;-63
2023/08/26 07:06:42;;;;;;;9.07;8.30;;;;;;;21.07;nan;96651.47;4886940;28;20304;-63
2023/08/26 07:09:11;;;;;;;10.83;10.03;;;;;;;20.95;nan;96649.00;5014751;28;20204;-63
2023/08/26 07:11:39;;;;;;;11.03;10.20;;;;;;;21.00;nan;96655.47;5011148;28;20208;-64
2023/08/26 07:14:06;;;;;;;9.13;8.53;;;;;;;21.07;nan;96656.03;5014457;28;20197;-63
2023/08/26 07:16:34;;;;;;;8.57;7.90;;;;;;;21.08;nan;96663.03;5015177;28;20247;-64
2023/08/26 07:19:02;;;;;;;9.60;8.80;;;;;;;20.92;nan;96651.41;5015326;28;20207;-61
2023/08/26 07:21:29;;;;;;;9.03;8.33;;;;;;;21.02;nan;96656.81;4955904;28;20253;-63
2023/08/26 07:23:57;;;;;;;9.40;8.70;;;;;;;21.29;nan;96647.72;5016347;28;20261;-64
2023/08/26 07:26:26;;;;;;;8.87;8.20;;;;;;;21.77;nan;96644.03;5011922;28;20208;-64
2023/08/26 07:28:54;;;;;;;9.80;9.10;;;;;;;22.03;nan;96644.84;5012494;28;20219;-63
2023/08/26 07:31:21;;;;;;;9.60;8.80;;;;;;;22.26;nan;96642.63;5015134;28;20208;-62
2023/08/26 07:33:49;;;;;;;9.17;8.47;;;;;;;22.27;nan;96636.16;5014908;28;20270;-63
2023/08/26 07:36:17;;;;;;;10.27;9.33;;;;;;;22.18;nan;96643.19;5013912;28;20208;-63
2023/08/26 07:38:44;;;;;;;9.43;8.63;;;;;;;22.03;nan;96646.72;5018672;28;20204;-64
2023/08/26 07:41:12;;;;;;;9.20;8.40;;;;;;;21.89;nan;96660.75;4886763;28;20798;-63
2023/08/26 07:43:41;;;;;;;9.07;8.47;;;;;;;21.72;nan;96655.63;5017407;28;20204;-63
2023/08/26 07:46:09;;;;;;;7.17;6.67;;;;;;;21.67;nan;96652.94;5013126;28;20652;-65
2023/08/26 07:48:39;;;;;;;8.13;7.50;;;;;;;21.52;nan;96649.09;5017595;28;20295;-64
2023/08/26 07:51:07;;;;;;;8.93;8.17;;;;;;;21.61;nan;96641.31;4950543;28;20404;-64
2023/08/26 07:53:35;;;;;;;8.10;7.50;;;;;;;21.60;nan;96644.28;5020431;28;20200;-63
2023/08/26 07:56:02;;;;;;;8.90;8.10;;;;;;;21.51;nan;96638.59;5013949;28;20200;-64
2023/08/26 07:58:30;;;;;;;8.00;7.40;;;;;;;21.41;nan;96642.09;5019960;28;20611;-63
2023/08/26 08:00:59;;;;;;;8.00;7.40;;;;;;;21.59;nan;96639.94;5011938;28;20212;-64
2023/08/26 08:03:27;;;;;;;8.03;7.33;;;;;;;22.17;nan;96633.50;5019530;28;20208;-64
2023/08/26 08:05:55;;;;;;;7.63;7.10;;;;;;;22.41;nan;96639.91;5014762;28;20224;-63
2023/08/26 08:08:24;;;;;;;8.47;7.67;;;;;;;22.38;nan;96645.88;5020098;28;20703;-64
2023/08/26 08:10:52;;;;;;;7.23;6.73;;;;;;;22.51;nan;96651.78;5013647;28;20205;-64
2023/08/26 08:13:20;;;;;;;8.03;7.47;;;;;;;22.52;nan;96654.19;4893835;28;20783;-65
2023/08/26 08:15:48;;;;;;;7.80;7.20;;;;;;;22.82;nan;96663.28;5018037;28;20219;-64
2023/08/26 08:18:17;;;;;;;7.93;7.33;;;;;;;22.94;nan;96662.19;4944194;28;20439;-64
2023/08/26 08:20:44;;;;;;;6.90;6.40;;;;;;;23.20;nan;96664.75;5021954;28;20219;-64
2023/08/26 08:23:12;;;;;;;6.43;6.03;;;;;;;23.38;nan;96663.31;5012877;28;20831;-64
2023/08/26 08:25:40;;;;;;;6.17;5.77;;;;;;;22.95;nan;96658.41;5020327;28;20231;-64
2023/08/26 08:28:07;;;;;;;5.77;5.40;;;;;;;22.44;nan;96649.34;4952349;28;20721;-63
2023/08/26 08:30:35;;;;;;;6.40;5.97;;;;;;;22.45;nan;96644.75;5018383;28;20215;-65
2023/08/26 08:33:03;;;;;;;5.93;5.47;;;;;;;22.50;nan;96648.28;5013050;28;20276;-64
2023/08/26 08:35:32;;;;;;;5.50;5.17;;;;;;;22.38;nan;96640.47;5019882;28;20200;-64
2023/08/26 08:38:00;;;;;;;5.27;4.87;;;;;;;22.35;nan;96638.31;5012407;28;20220;-64
2023/08/26 08:40:27;;;;;;;5.90;5.40;;;;;;;22.93;nan;96642.44;5016071;28;20208;-63
2023/08/26 08:42:55;;;;;;;5.97;5.47;;;;;;;23.34;nan;96627.13;4901999;28;21377;-64
2023/08/26 08:45:23;;;;;;;6.43;5.83;;;;;;;23.66;nan;96640.13;5015387;28;20238;-64
2023/08/26 08:47:52;;;;;;;5.90;5.33;;;;;;;23.60;nan;96643.97;5012298;28;20793;-63
2023/08/26 08:50:21;;;;;;;5.40;4.97;;;;;;;23.76;nan;96650.06;5016506;28;20691;-64
2023/08/26 08:52:52;;;;;;;6.97;5.40;;;;;;;23.73;nan;96623.59;5017727;28;20216;-64
2023/08/26 08:55:20;;;;;;;5.40;4.90;;;;;;;23.94;nan;96640.47;5022144;28;20676;-64
2023/08/26 08:57:49;;;;;;;6.63;5.13;;;;;;;23.70;nan;96643.91;4962976;28;20244;-64
2023/08/26 09:00:19;;;;;;;5.50;5.00;;;;;;;23.10;nan;96652.09;5016845;28;20458;-63
2023/08/26 09:02:47;;;;;;;5.00;4.50;;;;;;;23.36;nan;96641.16;5012376;28;20291;-65
2023/08/26 09:05:15;;;;;;;6.77;5.40;;;;;;;23.62;nan;96644.50;5018515;28;20304;-66
2023/08/26 09:07:43;;;;;;;5.93;5.37;;;;;;;23.53;nan;96652.41;5014288;28;20223;-65
2023/08/26 09:10:12;;;;;;;5.30;4.67;;;;;;;23.64;nan;96647.72;5017065;28;20201;-63
2023/08/26 09:12:40;;;;;;;5.03;4.53;;;;;;;23.54;nan;96647.81;5016148;28;20227;-65
2023/08/26 09:15:08;;;;;;;5.20;4.80;;;;;;;23.68;nan;96647.97;5017419;28;20729;-64
2023/08/26 09:17:40;;;;;;;7.33;4.70;;;;;;;23.89;nan;96648.63;4953591;28;20519;-65
2023/08/26 09:20:09;;;;;;;5.03;4.40;;;;;;;23.86;nan;96649.19;4984284;28;20221;-65
2023/08/26 09:22:37;;;;;;;5.67;5.27;;;;;;;23.87;nan;96650.81;5011753;28;20197;-63
2023/08/26 09:25:06;;;;;;;4.70;4.43;;;;;;;23.97;nan;96645.31;5013793;28;20232;-63
2023/08/26 09:27:35;;;;;;;5.13;4.63;;;;;;;23.95;nan;96650.19;5018215;28;20286;-64
2023/08/26 09:30:04;;;;;;;4.80;4.47;;;;;;;23.95;nan;96643.97;5014023;28;20204;-63
2023/08/26 09:32:33;;;;;;;4.83;4.43;;;;;;;23.75;nan;96626.81;4990347;28;20385;-62
2023/08/26 09:35:10;;;;;;;5.57;5.03;;;;;;;23.93;nan;96638.06;4985904;28;20208;-64
2023/08/26 09:37:38;;;;;;;5.53;4.87;;;;;;;24.51;nan;96626.41;5015649;28;20765;-64
2023/08/26 09:40:06;;;;;;;5.87;4.87;;;;;;;24.67;nan;96628.91;5017982;28;20208;-64
2023/08/26 09:42:36;;;;;;;5.03;4.73;;;;;;;24.41;nan;96619.19;5013563;28;20196;-63
2023/08/26 09:45:06;;;;;;;5.43;4.53;;;;;;;24.11;nan;96614.91;5017322;28;20211;-64
2023/08/26 09:47:37;;;;;;;5.80;5.10;;;;;;;23.93;nan;96630.72;4954078;28;20786;-62
2023/08/26 09:50:06;;;;;;;5.30;4.50;;;;;;;23.27;nan;96620.16;4969346;28;20208;-63
2023/08/26 09:52:42;;;;;;;6.37;4.77;;;;;;;23.32;nan;96613.91;4903431;28;21677;-62
2023/08/26 09:55:10;;;;;;;5.67;5.10;;;;;;;23.58;nan;96616.41;5007327;28;20205;-63
2023/08/26 09:57:39;;;;;;;8.33;4.73;;;;;;;23.63;nan;96613.66;5012389;28;21052;-64
2023/08/26 10:00:10;;;;;;;5.23;4.40;;;;;;;23.54;nan;96618.06;5012240;28;20204;-64
2023/08/26 10:02:39;;;;;;;5.60;5.20;;;;;;;23.59;nan;96612.63;4974076;28;20212;-65
2023/08/26 10:05:11;;;;;;;5.20;4.80;;;;;;;23.59;nan;96609.91;5008499;28;20208;-63
2023/08/26 10:07:39;;;;;;;5.63;4.57;;;;;;;23.76;nan;96611.41;4967369;28;20752;-66
2023/08/26 10:10:11;;;;;;;4.93;4.63;;;;;;;24.22;nan;96608.31;5005302;28;20221;-65
2023/08/26 10:12:42;;;;;;;4.33;3.93;;;;;;;24.77;nan;96606.38;5017872;28;20397;-66
2023/08/26 10:15:12;;;;;;;6.00;4.13;;;;;;;25.38;nan;96595.75;5017178;28;20212;-66
2023/08/26 10:17:42;;;;;;;4.83;4.30;;;;;;;25.42;nan;96575.88;5011068;28;20231;-65
2023/08/26 10:20:11;;;;;;;5.37;4.73;;;;;;;25.24;nan;96585.66;5018876;28;20317;-67
2023/08/26 10:22:39;;;;;;;5.73;4.67;;;;;;;25.39;nan;96591.97;4952765;28;20220;-67
2023/08/26 10:25:08;;;;;;;6.27;4.97;;;;;;;25.03;nan;96606.81;4908073;28;20224;-65
2023/08/26 10:27:37;;;;;;;7.27;4.90;;;;;;;24.98;nan;96604.19;5018966;28;20776;-67
2023/08/26 10:30:07;;;;;;;7.80;4.07;;;;;;;25.04;nan;96613.06;4951088;28;20220;-65
2023/08/26 10:32:42;;;;;;;4.40;4.10;;;;;;;24.93;nan;96610.47;5020145;28;20204;-64
2023/08/26 10:35:11;;;;;;;5.10;4.40;;;;;;;24.76;nan;96605.53;4991156;28;20729;-64
2023/08/26 10:37:40;;;;;;;4.87;4.47;;;;;;;24.70;nan;96601.25;4955802;28;20282;-66
2023/08/26 10:40:09;;;;;;;5.53;4.20;;;;;;;24.72;nan;96599.06;5016872;28;21593;-65
2023/08/26 10:42:37;;;;;;;4.60;4.30;;;;;;;24.68;nan;96593.44;4961564;28;20251;-67
2023/08/26 10:45:12;;;;;;;4.53;4.13;;;;;;;24.47;nan;96583.94;5015261;28;20207;-66
2023/08/26 10:47:44;;;;;;;4.37;4.00;;;;;;;24.29;nan;96561.97;4967500;28;20242;-66
2023/08/26 10:50:17;;;;;;;5.33;4.60;;;;;;;24.35;nan;96562.69;5010537;28;20867;-65
2023/08/26 10:52:45;;;;;;;4.93;4.53;;;;;;;24.33;nan;96562.16;4964469;28;20213;-66
2023/08/26 10:55:19;;;;;;;5.67;4.43;;;;;;;24.53;nan;96559.22;5015841;28;20200;-65
2023/08/26 10:58:08;;;;;;;4.43;4.13;;;;;;;24.73;nan;96540.31;4925988;28;20603;-65
2023/08/26 11:00:39;;;;;;;5.67;4.80;;;;;;;24.57;nan;96551.31;5020364;28;20219;-65
2023/08/26 11:03:09;;;;;;;6.43;4.43;;;;;;;24.50;nan;96553.56;5012976;28;20209;-62
2023/08/26 11:05:37;;;;;;;4.63;4.23;;;;;;;24.82;nan;96546.69;5017082;28;20208;-61
2023/08/26 11:08:06;;;;;;;4.43;4.07;;;;;;;25.10;nan;96538.72;5014172;28;20231;-65
2023/08/26 11:10:35;;;;;;;5.17;4.43;;;;;;;25.34;nan;96537.78;4958699;28;20215;-65
2023/08/26 11:13:03;;;;;;;4.97;4.57;;;;;;;25.10;nan;96534.09;5016485;28;20640;-65
2023/08/26 11:15:32;;;;;;;5.03;4.53;;;;;;;25.20;nan;96543.19;4955324;28;20266;-65
2023/08/26 11:18:02;;;;;;;5.27;4.53;;;;;;;25.22;nan;96543.69;4956019;28;20235;-67
2023/08/26 11:20:30;;;;;;;10.30;5.83;;;;;;;24.95;nan;96537.81;5017762;28;20201;-67
2023/08/26 11:22:58;;;;;;;7.90;5.70;;;;;;;24.80;nan;96541.56;4909060;28;20220;-67
2023/08/26 11:25:26;;;;;;;154.03;74.57;;;;;;;-148.82;100.00;60434.72;5016884;28;20215;-65
2023/08/26 11:27:54;;;;;;;9.47;7.10;;;;;;;-148.82;100.00;60434.72;4931798;28;20754;-65
2023/08/26 11:30:22;;;;;;;4.57;4.17;;;;;;;-148.82;100.00;60434.72;5022083;28;20204;-65
2023/08/26 11:32:50;;;;;;;5.30;4.87;;;;;;;-148.82;100.00;60434.72;5016608;28;20203;-69
2023/08/26 11:35:19;;;;;;;6.53;4.50;;;;;;;-148.82;100.00;60434.72;5021760;28;20208;-64
2023/08/26 11:37:49;;;;;;;6.67;4.53;;;;;;;-148.82;100.00;60434.72;5015535;28;20919;-67
2023/08/26 11:40:16;;;;;;;4.47;4.07;;;;;;;-148.82;100.00;60434.72;5015434;28;20268;-68
2023/08/26 11:42:44;;;;;;;5.07;4.57;;;;;;;-148.82;100.00;60434.72;5014478;28;20216;-66
2023/08/26 11:45:12;;;;;;;4.67;4.27;;;;;;;-148.82;100.00;60434.72;4945100;28;20592;-65
2023/08/26 11:47:40;;;;;;;5.60;4.67;;;;;;;-148.82;100.00;60434.72;5012960;28;20224;-66
2023/08/26 11:50:10;;;;;;;6.77;4.43;;;;;;;;;;5011510;28;20267;-66
2023/08/26 11:52:41;;;;;;;5.40;4.40;;;;;;;;;;5020727;28;20204;-66